sensor_id;sensor_type;location;lat;lon;timestamp;pressure;altitude;pressure_sealevel;temperature;humidity
19023;BME280;35226;48.606;8.858;2024-03-02T00:01:12;95131.66;;;5.96;100.00
19023;BME280;35226;48.606;8.858;2024-03-02T00:03:39;95126.16;;;5.96;100.00
19023;BME280;35226;48.606;8.858;2024-03-02T00:06:06;95139.97;;;5.80;100.00
19023;BME280;35226;48.606;8.858;2024-03-02T00:08:32;95136.81;;;5.94;100.00
19023;BME280;35226;48.606;8.858;2024-03-02T00:10:59;95146.44;;;5.86;100.00
19023;BME280;35226;48.606;8.858;2024-03-02T00:13:24;95143.16;;;5.91;100.00
19023;BME280;35226;48.606;8.858;2024-03-02T00:15:54;95147.22;;;5.86;100.00
19023;BME280;35226;48.606;8.858;2024-03-02T00:18:30;95137.44;;;5.85;100.00
19023;BME280;35226;48.606;8.858;2024-03-02T00:20:56;95130.22;;;5.91;100.00
19023;BME280;35226;48.606;8.858;2024-03-02T00:23:23;95133.94;;;5.85;100.00
19023;BME280;35226;48.606;8.858;2024-03-02T00:25:51;95128.56;;;5.81;100.00
19023;BME280;35226;48.606;8.858;2024-03-02T00:33:19;95122.97;;;5.98;100.00
19023;BME280;35226;48.606;8.858;2024-03-02T00:35:46;95128.78;;;5.87;100.00
19023;BME280;35226;48.606;8.858;2024-03-02T00:38:14;95138.09;;;5.89;100.00
19023;BME280;35226;48.606;8.858;2024-03-02T00:40:44;95131.31;;;5.94;100.00
19023;BME280;35226;48.606;8.858;2024-03-02T00:45:49;95138.44;;;5.66;100.00
19023;BME280;35226;48.606;8.858;2024-03-02T00:48:15;95137.56;;;5.69;100.00
19023;BME280;35226;48.606;8.858;2024-03-02T00:50:42;95136.44;;;5.79;100.00
19023;BME280;35226;48.606;8.858;2024-03-02T00:53:10;95135.91;;;5.84;100.00
19023;BME280;35226;48.606;8.858;2024-03-02T00:55:37;95138.97;;;5.86;100.00
19023;BME280;35226;48.606;8.858;2024-03-02T00:58:03;95138.22;;;5.86;100.00
19023;BME280;35226;48.606;8.858;2024-03-02T01:00:28;95130.53;;;5.81;100.00
19023;BME280;35226;48.606;8.858;2024-03-02T01:02:54;95133.63;;;5.70;100.00
19023;BME280;35226;48.606;8.858;2024-03-02T01:05:20;95138.34;;;5.57;100.00
19023;BME280;35226;48.606;8.858;2024-03-02T01:07:45;95135.47;;;5.61;100.00
19023;BME280;35226;48.606;8.858;2024-03-02T01:10:11;95138.44;;;5.66;100.00
19023;BME280;35226;48.606;8.858;2024-03-02T01:12:36;95145.56;;;5.51;100.00
19023;BME280;35226;48.606;8.858;2024-03-02T01:15:02;95140.84;;;5.51;100.00
19023;BME280;35226;48.606;8.858;2024-03-02T01:17:31;95132.63;;;5.64;100.00
19023;BME280;35226;48.606;8.858;2024-03-02T01:19:56;95136.25;;;5.48;100.00
19023;BME280;35226;48.606;8.858;2024-03-02T01:22:23;95124.84;;;5.50;100.00
19023;BME280;35226;48.606;8.858;2024-03-02T01:24:50;95125.28;;;5.61;100.00
19023;BME280;35226;48.606;8.858;2024-03-02T01:27:16;95128.25;;;5.67;100.00
19023;BME280;35226;48.606;8.858;2024-03-02T01:29:41;95128.03;;;5.36;100.00
19023;BME280;35226;48.606;8.858;2024-03-02T01:32:07;95130.13;;;5.32;100.00
19023;BME280;35226;48.606;8.858;2024-03-02T01:34:32;95121.91;;;5.19;100.00
19023;BME280;35226;48.606;8.858;2024-03-02T01:36:58;95119.28;;;5.15;100.00
19023;BME280;35226;48.606;8.858;2024-03-02T01:39:23;95123.72;;;5.09;100.00
19023;BME280;35226;48.606;8.858;2024-03-02T01:41:48;95117.53;;;5.34;100.00
19023;BME280;35226;48.606;8.858;2024-03-02T01:44:14;95118.06;;;5.54;100.00
19023;BME280;35226;48.606;8.858;2024-03-02T01:46:39;95115.00;;;5.14;100.00
19023;BME280;35226;48.606;8.858;2024-03-02T01:49:06;95111.59;;;5.23;100.00
19023;BME280;35226;48.606;8.858;2024-03-02T01:51:31;95119.06;;;5.22;100.00
19023;BME280;35226;48.606;8.858;2024-03-02T01:53:57;95116.28;;;4.97;100.00
19023;BME280;35226;48.606;8.858;2024-03-02T01:56:22;95120.88;;;4.88;100.00
19023;BME280;35226;48.606;8.858;2024-03-02T01:58:48;95123.03;;;4.80;100.00
19023;BME280;35226;48.606;8.858;2024-03-02T02:01:13;95119.97;;;4.78;100.00
19023;BME280;35226;48.606;8.858;2024-03-02T02:03:39;95113.00;;;5.02;100.00
19023;BME280;35226;48.606;8.858;2024-03-02T02:06:06;95114.63;;;5.00;100.00
19023;BME280;35226;48.606;8.858;2024-03-02T02:08:32;95114.50;;;4.91;100.00
19023;BME280;35226;48.606;8.858;2024-03-02T02:10:57;95103.06;;;5.08;100.00
19023;BME280;35226;48.606;8.858;2024-03-02T02:13:23;95099.94;;;4.81;100.00
19023;BME280;35226;48.606;8.858;2024-03-02T02:15:49;95103.88;;;4.80;100.00
19023;BME280;35226;48.606;8.858;2024-03-02T02:18:15;95107.41;;;4.93;100.00
19023;BME280;35226;48.606;8.858;2024-03-02T02:20:41;95100.81;;;4.91;100.00
19023;BME280;35226;48.606;8.858;2024-03-02T02:23:06;95095.94;;;4.98;100.00
19023;BME280;35226;48.606;8.858;2024-03-02T02:25:35;95093.09;;;5.14;100.00
19023;BME280;35226;48.606;8.858;2024-03-02T02:28:00;95097.91;;;4.98;100.00
19023;BME280;35226;48.606;8.858;2024-03-02T02:30:29;95096.13;;;4.91;100.00
19023;BME280;35226;48.606;8.858;2024-03-02T02:32:55;95094.19;;;5.04;100.00
19023;BME280;35226;48.606;8.858;2024-03-02T02:35:20;95096.38;;;4.97;100.00
19023;BME280;35226;48.606;8.858;2024-03-02T02:37:47;95089.03;;;4.94;100.00
19023;BME280;35226;48.606;8.858;2024-03-02T02:40:12;95092.50;;;4.81;100.00
19023;BME280;35226;48.606;8.858;2024-03-02T02:42:39;95099.38;;;4.73;100.00
19023;BME280;35226;48.606;8.858;2024-03-02T02:45:05;95095.22;;;4.69;100.00
19023;BME280;35226;48.606;8.858;2024-03-02T02:47:31;95094.22;;;4.63;100.00
19023;BME280;35226;48.606;8.858;2024-03-02T02:50:01;95091.91;;;4.61;100.00
19023;BME280;35226;48.606;8.858;2024-03-02T02:52:31;95095.63;;;4.55;100.00
19023;BME280;35226;48.606;8.858;2024-03-02T02:54:58;95096.72;;;4.57;100.00
19023;BME280;35226;48.606;8.858;2024-03-02T02:57:23;95095.19;;;4.56;100.00
19023;BME280;35226;48.606;8.858;2024-03-02T02:59:49;95093.31;;;4.53;100.00
19023;BME280;35226;48.606;8.858;2024-03-02T03:02:14;95095.63;;;4.55;100.00
19023;BME280;35226;48.606;8.858;2024-03-02T03:04:40;95091.69;;;4.56;100.00
19023;BME280;35226;48.606;8.858;2024-03-02T03:07:05;95088.81;;;4.46;100.00
19023;BME280;35226;48.606;8.858;2024-03-02T03:09:31;95094.63;;;4.61;100.00
19023;BME280;35226;48.606;8.858;2024-03-02T03:11:57;95092.78;;;4.58;100.00
19023;BME280;35226;48.606;8.858;2024-03-02T03:14:22;95090.06;;;4.58;100.00
19023;BME280;35226;48.606;8.858;2024-03-02T03:16:48;95087.75;;;4.57;100.00
19023;BME280;35226;48.606;8.858;2024-03-02T03:19:13;95086.63;;;4.54;100.00
19023;BME280;35226;48.606;8.858;2024-03-02T03:21:39;95086.00;;;4.50;100.00
19023;BME280;35226;48.606;8.858;2024-03-02T03:24:04;95092.69;;;4.33;100.00
19023;BME280;35226;48.606;8.858;2024-03-02T03:26:30;95081.88;;;4.29;100.00
19023;BME280;35226;48.606;8.858;2024-03-02T03:28:55;95090.50;;;4.28;100.00
19023;BME280;35226;48.606;8.858;2024-03-02T03:31:21;95099.84;;;4.43;100.00
19023;BME280;35226;48.606;8.858;2024-03-02T03:33:46;95091.78;;;4.52;100.00
19023;BME280;35226;48.606;8.858;2024-03-02T03:36:11;95100.75;;;4.24;100.00
19023;BME280;35226;48.606;8.858;2024-03-02T03:38:37;95095.25;;;4.40;100.00
19023;BME280;35226;48.606;8.858;2024-03-02T03:41:02;95091.53;;;4.46;100.00
19023;BME280;35226;48.606;8.858;2024-03-02T03:43:28;95091.41;;;4.37;100.00
19023;BME280;35226;48.606;8.858;2024-03-02T03:45:54;95088.88;;;4.30;100.00
19023;BME280;35226;48.606;8.858;2024-03-02T03:48:20;95088.91;;;4.43;100.00
19023;BME280;35226;48.606;8.858;2024-03-02T03:50:45;95081.19;;;4.25;100.00
19023;BME280;35226;48.606;8.858;2024-03-02T03:53:10;95092.56;;;4.24;100.00
19023;BME280;35226;48.606;8.858;2024-03-02T03:55:36;95086.28;;;4.39;100.00
19023;BME280;35226;48.606;8.858;2024-03-02T03:58:01;95089.03;;;4.52;100.00
19023;BME280;35226;48.606;8.858;2024-03-02T04:00:27;95085.66;;;4.48;100.00
19023;BME280;35226;48.606;8.858;2024-03-02T04:02:52;95099.63;;;4.37;100.00
19023;BME280;35226;48.606;8.858;2024-03-02T04:05:17;95090.00;;;4.45;100.00
19023;BME280;35226;48.606;8.858;2024-03-02T04:07:43;95092.75;;;4.45;100.00
19023;BME280;35226;48.606;8.858;2024-03-02T04:10:14;95091.50;;;4.34;100.00
19023;BME280;35226;48.606;8.858;2024-03-02T04:12:41;95088.41;;;4.32;100.00
19023;BME280;35226;48.606;8.858;2024-03-02T04:15:07;95090.28;;;4.06;100.00
19023;BME280;35226;48.606;8.858;2024-03-02T04:17:33;95097.25;;;4.23;100.00
19023;BME280;35226;48.606;8.858;2024-03-02T04:19:59;95096.06;;;4.24;100.00
19023;BME280;35226;48.606;8.858;2024-03-02T04:22:26;95092.94;;;4.09;100.00
19023;BME280;35226;48.606;8.858;2024-03-02T04:24:52;95085.53;;;4.23;100.00
19023;BME280;35226;48.606;8.858;2024-03-02T04:27:18;95084.75;;;4.09;100.00
19023;BME280;35226;48.606;8.858;2024-03-02T04:29:43;95085.53;;;3.94;100.00
19023;BME280;35226;48.606;8.858;2024-03-02T04:32:08;95085.19;;;3.92;100.00
19023;BME280;35226;48.606;8.858;2024-03-02T04:34:34;95098.22;;;4.17;100.00
19023;BME280;35226;48.606;8.858;2024-03-02T04:36:59;95097.88;;;4.15;100.00
19023;BME280;35226;48.606;8.858;2024-03-02T04:39:25;95090.88;;;4.14;100.00
19023;BME280;35226;48.606;8.858;2024-03-02T04:41:50;95091.63;;;4.30;100.00
19023;BME280;35226;48.606;8.858;2024-03-02T04:44:16;95092.84;;;4.13;100.00
19023;BME280;35226;48.606;8.858;2024-03-02T04:46:41;95088.25;;;4.10;100.00
19023;BME280;35226;48.606;8.858;2024-03-02T04:49:07;95089.94;;;4.20;100.00
19023;BME280;35226;48.606;8.858;2024-03-02T04:51:33;95093.66;;;4.26;100.00
19023;BME280;35226;48.606;8.858;2024-03-02T04:53:58;95089.47;;;4.22;100.00
19023;BME280;35226;48.606;8.858;2024-03-02T04:56:24;95094.28;;;4.18;100.00
19023;BME280;35226;48.606;8.858;2024-03-02T04:59:10;95097.53;;;4.13;100.00
19023;BME280;35226;48.606;8.858;2024-03-02T05:01:35;95097.56;;;3.96;100.00
19023;BME280;35226;48.606;8.858;2024-03-02T05:04:00;95108.56;;;4.09;100.00
19023;BME280;35226;48.606;8.858;2024-03-02T05:06:26;95097.44;;;4.16;100.00
19023;BME280;35226;48.606;8.858;2024-03-02T05:08:51;95100.13;;;4.03;100.00
19023;BME280;35226;48.606;8.858;2024-03-02T05:11:17;95100.72;;;4.11;100.00
19023;BME280;35226;48.606;8.858;2024-03-02T05:14:13;95106.59;;;4.09;100.00
19023;BME280;35226;48.606;8.858;2024-03-02T05:16:39;95107.53;;;4.03;100.00
19023;BME280;35226;48.606;8.858;2024-03-02T05:19:06;95108.03;;;4.14;100.00
19023;BME280;35226;48.606;8.858;2024-03-02T05:21:32;95115.75;;;4.03;100.00
19023;BME280;35226;48.606;8.858;2024-03-02T05:23:57;95116.69;;;3.96;100.00
19023;BME280;35226;48.606;8.858;2024-03-02T05:26:23;95124.53;;;3.94;100.00
19023;BME280;35226;48.606;8.858;2024-03-02T05:28:48;95125.75;;;3.93;100.00
19023;BME280;35226;48.606;8.858;2024-03-02T05:31:17;95121.16;;;3.90;100.00
19023;BME280;35226;48.606;8.858;2024-03-02T05:33:43;95123.63;;;3.85;100.00
19023;BME280;35226;48.606;8.858;2024-03-02T05:36:09;95123.28;;;3.83;100.00
19023;BME280;35226;48.606;8.858;2024-03-02T05:38:35;95120.03;;;3.88;100.00
19023;BME280;35226;48.606;8.858;2024-03-02T05:41:01;95123.53;;;3.88;100.00
19023;BME280;35226;48.606;8.858;2024-03-02T05:43:26;95135.25;;;3.89;100.00
19023;BME280;35226;48.606;8.858;2024-03-02T05:45:52;95128.31;;;3.84;100.00
19023;BME280;35226;48.606;8.858;2024-03-02T05:48:17;95124.03;;;3.83;100.00
19023;BME280;35226;48.606;8.858;2024-03-02T05:50:42;95127.81;;;3.73;100.00
19023;BME280;35226;48.606;8.858;2024-03-02T05:53:08;95122.44;;;3.86;100.00
19023;BME280;35226;48.606;8.858;2024-03-02T05:55:34;95122.94;;;3.64;100.00
19023;BME280;35226;48.606;8.858;2024-03-02T05:58:00;95125.34;;;3.79;100.00
19023;BME280;35226;48.606;8.858;2024-03-02T06:00:31;95126.53;;;3.61;100.00
19023;BME280;35226;48.606;8.858;2024-03-02T06:02:57;95124.47;;;3.65;100.00
19023;BME280;35226;48.606;8.858;2024-03-02T06:05:23;95126.34;;;3.85;100.00
19023;BME280;35226;48.606;8.858;2024-03-02T06:07:50;95132.50;;;3.89;100.00
19023;BME280;35226;48.606;8.858;2024-03-02T06:10:15;95136.78;;;3.90;100.00
19023;BME280;35226;48.606;8.858;2024-03-02T06:12:41;95136.94;;;3.66;100.00
19023;BME280;35226;48.606;8.858;2024-03-02T06:15:07;95137.03;;;3.79;100.00
19023;BME280;35226;48.606;8.858;2024-03-02T06:17:32;95138.72;;;3.73;100.00
19023;BME280;35226;48.606;8.858;2024-03-02T06:20:00;95137.63;;;3.87;100.00
19023;BME280;35226;48.606;8.858;2024-03-02T06:22:25;95140.34;;;3.87;100.00
19023;BME280;35226;48.606;8.858;2024-03-02T06:24:51;95144.34;;;3.82;100.00
19023;BME280;35226;48.606;8.858;2024-03-02T06:27:16;95146.16;;;3.72;100.00
19023;BME280;35226;48.606;8.858;2024-03-02T06:29:42;95141.16;;;3.71;100.00
19023;BME280;35226;48.606;8.858;2024-03-02T06:32:07;95139.25;;;3.68;100.00
19023;BME280;35226;48.606;8.858;2024-03-02T06:34:33;95139.50;;;3.57;100.00
19023;BME280;35226;48.606;8.858;2024-03-02T06:36:58;95143.44;;;3.56;100.00
19023;BME280;35226;48.606;8.858;2024-03-02T06:39:24;95142.00;;;3.52;100.00
19023;BME280;35226;48.606;8.858;2024-03-02T06:41:51;95142.00;;;3.52;100.00
19023;BME280;35226;48.606;8.858;2024-03-02T06:44:17;95144.28;;;3.53;100.00
19023;BME280;35226;48.606;8.858;2024-03-02T06:46:42;95143.84;;;3.55;100.00
19023;BME280;35226;48.606;8.858;2024-03-02T06:49:08;95145.75;;;3.58;100.00
19023;BME280;35226;48.606;8.858;2024-03-02T06:51:35;95145.75;;;3.58;100.00
19023;BME280;35226;48.606;8.858;2024-03-02T06:54:01;95141.47;;;3.57;100.00
19023;BME280;35226;48.606;8.858;2024-03-02T06:56:26;95141.72;;;3.62;100.00
19023;BME280;35226;48.606;8.858;2024-03-02T06:58:51;95146.59;;;3.71;100.00
19023;BME280;35226;48.606;8.858;2024-03-02T07:01:17;95141.16;;;3.71;100.00
19023;BME280;35226;48.606;8.858;2024-03-02T07:03:44;95149.41;;;3.51;100.00
19023;BME280;35226;48.606;8.858;2024-03-02T07:06:10;95147.88;;;3.66;100.00
19023;BME280;35226;48.606;8.858;2024-03-02T07:08:36;95148.56;;;3.70;100.00
19023;BME280;35226;48.606;8.858;2024-03-02T07:11:03;95148.81;;;3.76;100.00
19023;BME280;35226;48.606;8.858;2024-03-02T07:13:30;95149.91;;;3.62;100.00
19023;BME280;35226;48.606;8.858;2024-03-02T07:15:56;95153.91;;;3.42;100.00
19023;BME280;35226;48.606;8.858;2024-03-02T07:18:31;95146.50;;;3.58;100.00
19023;BME280;35226;48.606;8.858;2024-03-02T07:20:59;95148.97;;;3.53;100.00
19023;BME280;35226;48.606;8.858;2024-03-02T07:23:29;95152.06;;;3.71;100.00
19023;BME280;35226;48.606;8.858;2024-03-02T07:25:55;95160.25;;;3.71;100.00
19023;BME280;35226;48.606;8.858;2024-03-02T07:28:25;95155.81;;;3.77;100.00
19023;BME280;35226;48.606;8.858;2024-03-02T07:31:00;95153.69;;;3.68;100.00
19023;BME280;35226;48.606;8.858;2024-03-02T07:33:26;95149.75;;;3.69;100.00
19023;BME280;35226;48.606;8.858;2024-03-02T07:35:52;95151.28;;;3.70;100.00
19023;BME280;35226;48.606;8.858;2024-03-02T07:38:19;95154.94;;;3.64;100.00
19023;BME280;35226;48.606;8.858;2024-03-02T07:40:44;95158.63;;;3.73;100.00
19023;BME280;35226;48.606;8.858;2024-03-02T07:43:10;95154.34;;;3.72;100.00
19023;BME280;35226;48.606;8.858;2024-03-02T07:45:36;95149.94;;;3.79;100.00
19023;BME280;35226;48.606;8.858;2024-03-02T07:48:02;95149.41;;;3.84;100.00
19023;BME280;35226;48.606;8.858;2024-03-02T07:50:29;95153.94;;;3.90;100.00
19023;BME280;35226;48.606;8.858;2024-03-02T07:52:55;95147.09;;;3.98;100.00
19023;BME280;35226;48.606;8.858;2024-03-02T07:55:21;95157.22;;;4.14;100.00
19023;BME280;35226;48.606;8.858;2024-03-02T07:57:46;95164.59;;;4.17;100.00
19023;BME280;35226;48.606;8.858;2024-03-02T08:00:12;95169.25;;;4.33;100.00
19023;BME280;35226;48.606;8.858;2024-03-02T08:02:40;95167.34;;;4.46;100.00
19023;BME280;35226;48.606;8.858;2024-03-02T08:05:06;95161.66;;;4.69;100.00
19023;BME280;35226;48.606;8.858;2024-03-02T08:07:31;95158.59;;;4.80;100.00
19023;BME280;35226;48.606;8.858;2024-03-02T08:09:57;95158.38;;;4.74;100.00
19023;BME280;35226;48.606;8.858;2024-03-02T08:12:22;95164.03;;;4.67;100.00
19023;BME280;35226;48.606;8.858;2024-03-02T08:14:48;95169.84;;;5.11;100.00
19023;BME280;35226;48.606;8.858;2024-03-02T08:17:14;95164.19;;;5.18;100.00
19023;BME280;35226;48.606;8.858;2024-03-02T08:19:39;95162.00;;;5.26;100.00
19023;BME280;35226;48.606;8.858;2024-03-02T08:22:05;95162.81;;;5.10;100.00
19023;BME280;35226;48.606;8.858;2024-03-02T08:24:31;95153.13;;;5.34;100.00
19023;BME280;35226;48.606;8.858;2024-03-02T08:26:57;95160.28;;;5.57;100.00
19023;BME280;35226;48.606;8.858;2024-03-02T08:29:23;95158.84;;;5.65;100.00
19023;BME280;35226;48.606;8.858;2024-03-02T08:31:49;95164.66;;;5.67;100.00
19023;BME280;35226;48.606;8.858;2024-03-02T08:34:14;95160.91;;;5.61;100.00
19023;BME280;35226;48.606;8.858;2024-03-02T08:36:40;95163.31;;;5.84;100.00
19023;BME280;35226;48.606;8.858;2024-03-02T08:39:05;95146.88;;;5.97;100.00
19023;BME280;35226;48.606;8.858;2024-03-02T08:41:32;95152.47;;;5.93;100.00
19023;BME280;35226;48.606;8.858;2024-03-02T08:43:58;95141.81;;;6.08;100.00
19023;BME280;35226;48.606;8.858;2024-03-02T08:46:23;95145.41;;;6.18;100.00
19023;BME280;35226;48.606;8.858;2024-03-02T08:48:49;95145.19;;;6.25;100.00
19023;BME280;35226;48.606;8.858;2024-03-02T08:51:14;95139.84;;;6.43;100.00
19023;BME280;35226;48.606;8.858;2024-03-02T08:53:40;95131.66;;;6.65;100.00
19023;BME280;35226;48.606;8.858;2024-03-02T08:56:05;95130.34;;;6.79;100.00
19023;BME280;35226;48.606;8.858;2024-03-02T08:58:32;95123.03;;;6.76;100.00
19023;BME280;35226;48.606;8.858;2024-03-02T09:00:57;95124.38;;;6.93;100.00
19023;BME280;35226;48.606;8.858;2024-03-02T09:03:23;95124.28;;;7.05;100.00
19023;BME280;35226;48.606;8.858;2024-03-02T09:05:48;95117.81;;;7.21;100.00
19023;BME280;35226;48.606;8.858;2024-03-02T09:08:14;95107.72;;;7.18;100.00
19023;BME280;35226;48.606;8.858;2024-03-02T09:10:40;95113.75;;;7.35;100.00
19023;BME280;35226;48.606;8.858;2024-03-02T09:13:05;95111.47;;;7.33;100.00
19023;BME280;35226;48.606;8.858;2024-03-02T09:15:31;95119.38;;;7.31;100.00
19023;BME280;35226;48.606;8.858;2024-03-02T09:17:56;95124.81;;;7.44;100.00
19023;BME280;35226;48.606;8.858;2024-03-02T09:20:22;95113.69;;;7.57;100.00
19023;BME280;35226;48.606;8.858;2024-03-02T09:22:48;95113.69;;;7.57;100.00
19023;BME280;35226;48.606;8.858;2024-03-02T09:25:14;95114.22;;;7.73;100.00
19023;BME280;35226;48.606;8.858;2024-03-02T09:27:41;95109.19;;;7.81;100.00
19023;BME280;35226;48.606;8.858;2024-03-02T09:30:10;95109.06;;;7.94;100.00
19023;BME280;35226;48.606;8.858;2024-03-02T09:32:37;95106.13;;;7.79;100.00
19023;BME280;35226;48.606;8.858;2024-03-02T09:35:02;95107.25;;;8.00;100.00
19023;BME280;35226;48.606;8.858;2024-03-02T09:37:28;95107.41;;;8.05;100.00
19023;BME280;35226;48.606;8.858;2024-03-02T09:39:54;95105.00;;;8.26;100.00
19023;BME280;35226;48.606;8.858;2024-03-02T09:42:20;95097.81;;;8.19;100.00
19023;BME280;35226;48.606;8.858;2024-03-02T09:44:46;95106.84;;;8.29;100.00
19023;BME280;35226;48.606;8.858;2024-03-02T09:47:12;95102.75;;;8.61;100.00
19023;BME280;35226;48.606;8.858;2024-03-02T09:49:38;95092.94;;;8.78;100.00
19023;BME280;35226;48.606;8.858;2024-03-02T09:52:05;95099.53;;;8.44;100.00
19023;BME280;35226;48.606;8.858;2024-03-02T09:54:32;95093.41;;;8.76;100.00
19023;BME280;35226;48.606;8.858;2024-03-02T09:56:57;95087.06;;;9.03;100.00
19023;BME280;35226;48.606;8.858;2024-03-02T09:59:23;95089.53;;;8.92;100.00
19023;BME280;35226;48.606;8.858;2024-03-02T10:01:58;95095.91;;;9.25;100.00
19023;BME280;35226;48.606;8.858;2024-03-02T10:04:29;95092.41;;;9.16;100.00
19023;BME280;35226;48.606;8.858;2024-03-02T10:07:14;95099.41;;;9.26;100.00
19023;BME280;35226;48.606;8.858;2024-03-02T10:09:41;95090.09;;;9.65;100.00
19023;BME280;35226;48.606;8.858;2024-03-02T10:12:09;95092.69;;;9.69;100.00
19023;BME280;35226;48.606;8.858;2024-03-02T10:14:35;95081.66;;;9.93;100.00
19023;BME280;35226;48.606;8.858;2024-03-02T10:17:06;95082.50;;;10.08;100.00
19023;BME280;35226;48.606;8.858;2024-03-02T10:19:32;95082.06;;;10.33;100.00
19023;BME280;35226;48.606;8.858;2024-03-02T10:22:04;95077.00;;;10.70;100.00
19023;BME280;35226;48.606;8.858;2024-03-02T10:24:40;95076.06;;;10.88;100.00
19023;BME280;35226;48.606;8.858;2024-03-02T10:27:14;95069.78;;;11.02;100.00
19023;BME280;35226;48.606;8.858;2024-03-02T10:29:40;95068.06;;;11.20;100.00
19023;BME280;35226;48.606;8.858;2024-03-02T10:32:09;95063.41;;;11.11;100.00
19023;BME280;35226;48.606;8.858;2024-03-02T10:34:37;95059.47;;;11.32;100.00
19023;BME280;35226;48.606;8.858;2024-03-02T10:37:03;95058.75;;;11.67;100.00
19023;BME280;35226;48.606;8.858;2024-03-02T10:39:28;95060.06;;;11.86;100.00
19023;BME280;35226;48.606;8.858;2024-03-02T10:41:55;95057.38;;;11.92;100.00
19023;BME280;35226;48.606;8.858;2024-03-02T10:44:22;95060.44;;;12.34;100.00
19023;BME280;35226;48.606;8.858;2024-03-02T10:46:49;95057.69;;;12.14;100.00
19023;BME280;35226;48.606;8.858;2024-03-02T10:49:15;95053.91;;;12.57;100.00
19023;BME280;35226;48.606;8.858;2024-03-02T10:51:41;95047.63;;;12.57;100.00
19023;BME280;35226;48.606;8.858;2024-03-02T10:54:06;95057.22;;;12.82;100.00
19023;BME280;35226;48.606;8.858;2024-03-02T10:56:38;95049.31;;;12.75;100.00
19023;BME280;35226;48.606;8.858;2024-03-02T10:59:24;95046.41;;;13.10;100.00
19023;BME280;35226;48.606;8.858;2024-03-02T11:01:56;95035.19;;;13.24;100.00
19023;BME280;35226;48.606;8.858;2024-03-02T11:04:25;95031.94;;;13.26;100.00
19023;BME280;35226;48.606;8.858;2024-03-02T11:06:51;95031.63;;;13.50;100.00
19023;BME280;35226;48.606;8.858;2024-03-02T11:09:22;95034.44;;;13.55;100.00
19023;BME280;35226;48.606;8.858;2024-03-02T11:11:55;95029.94;;;14.49;100.00
19023;BME280;35226;48.606;8.858;2024-03-02T11:14:24;95022.41;;;14.66;100.00
19023;BME280;35226;48.606;8.858;2024-03-02T11:16:51;95020.34;;;14.55;100.00
19023;BME280;35226;48.606;8.858;2024-03-02T11:19:17;95016.88;;;14.82;100.00
19023;BME280;35226;48.606;8.858;2024-03-02T11:21:44;95022.31;;;14.43;99.49
19023;BME280;35226;48.606;8.858;2024-03-02T11:24:29;95016.34;;;14.73;100.00
19023;BME280;35226;48.606;8.858;2024-03-02T11:27:06;95012.81;;;14.67;100.00
19023;BME280;35226;48.606;8.858;2024-03-02T11:32:03;94998.97;;;15.28;94.60
19023;BME280;35226;48.606;8.858;2024-03-02T11:34:36;94993.66;;;15.30;93.13
19023;BME280;35226;48.606;8.858;2024-03-02T11:37:05;94995.16;;;15.20;92.78
19023;BME280;35226;48.606;8.858;2024-03-02T11:39:30;94986.56;;;15.29;95.03
19023;BME280;35226;48.606;8.858;2024-03-02T11:41:57;94990.13;;;15.24;100.00
19023;BME280;35226;48.606;8.858;2024-03-02T11:44:25;94980.25;;;15.45;98.92
19023;BME280;35226;48.606;8.858;2024-03-02T11:47:01;94974.44;;;15.32;96.88
19023;BME280;35226;48.606;8.858;2024-03-02T11:49:41;94974.72;;;15.57;90.83
19023;BME280;35226;48.606;8.858;2024-03-02T11:52:09;94966.41;;;16.20;76.85
19023;BME280;35226;48.606;8.858;2024-03-02T11:54:39;94967.69;;;16.24;86.00
19023;BME280;35226;48.606;8.858;2024-03-02T11:57:06;94965.66;;;16.25;81.49
19023;BME280;35226;48.606;8.858;2024-03-02T11:59:32;94966.00;;;16.98;73.54
19023;BME280;35226;48.606;8.858;2024-03-02T12:01:59;94962.56;;;17.46;67.11
19023;BME280;35226;48.606;8.858;2024-03-02T12:04:25;94955.13;;;18.08;64.06
19023;BME280;35226;48.606;8.858;2024-03-02T12:06:59;94949.06;;;18.04;61.73
19023;BME280;35226;48.606;8.858;2024-03-02T12:09:29;94948.53;;;17.27;63.82
19023;BME280;35226;48.606;8.858;2024-03-02T12:12:08;94945.97;;;17.29;66.80
19023;BME280;35226;48.606;8.858;2024-03-02T12:14:41;94939.13;;;17.00;75.54
19023;BME280;35226;48.606;8.858;2024-03-02T12:17:18;94937.53;;;17.35;68.16
19023;BME280;35226;48.606;8.858;2024-03-02T12:19:44;94932.16;;;17.72;66.58
19023;BME280;35226;48.606;8.858;2024-03-02T12:22:11;94931.72;;;17.87;54.16
19023;BME280;35226;48.606;8.858;2024-03-02T12:24:36;94929.69;;;17.88;53.65
19023;BME280;35226;48.606;8.858;2024-03-02T12:27:03;94935.38;;;17.52;54.14
19023;BME280;35226;48.606;8.858;2024-03-02T12:29:29;94929.81;;;17.47;51.48
19023;BME280;35226;48.606;8.858;2024-03-02T12:31:55;94918.03;;;17.84;51.91
19023;BME280;35226;48.606;8.858;2024-03-02T12:34:22;94919.09;;;18.42;56.09
19023;BME280;35226;48.606;8.858;2024-03-02T12:36:48;94925.97;;;18.41;48.79
19023;BME280;35226;48.606;8.858;2024-03-02T12:39:18;94921.34;;;18.68;47.07
19023;BME280;35226;48.606;8.858;2024-03-02T12:41:43;94925.41;;;18.86;48.72
19023;BME280;35226;48.606;8.858;2024-03-02T12:44:09;94927.19;;;18.46;49.08
19023;BME280;35226;48.606;8.858;2024-03-02T12:46:35;94916.88;;;17.98;50.97
19023;BME280;35226;48.606;8.858;2024-03-02T12:49:14;94913.81;;;18.20;50.66
19023;BME280;35226;48.606;8.858;2024-03-02T12:51:42;94907.91;;;18.05;50.13
19023;BME280;35226;48.606;8.858;2024-03-02T12:54:08;94899.28;;;18.22;49.47
19023;BME280;35226;48.606;8.858;2024-03-02T12:56:35;94911.78;;;18.21;48.59
19023;BME280;35226;48.606;8.858;2024-03-02T12:59:01;94896.44;;;17.60;48.95
19023;BME280;35226;48.606;8.858;2024-03-02T13:01:26;94907.44;;;18.01;48.29
19023;BME280;35226;48.606;8.858;2024-03-02T13:03:52;94899.56;;;17.26;49.95
19023;BME280;35226;48.606;8.858;2024-03-02T13:06:20;94901.34;;;17.24;49.89
19023;BME280;35226;48.606;8.858;2024-03-02T13:08:46;94898.03;;;16.95;52.39